Time;durP1;ratioP1;P1;durP2;ratioP2;P2;SDS_P1;SDS_P2;PMS_P1;PMS_P2;Temp;Humidity;BMP_temperature;BMP_pressure;BME280_temperature;BME280_humidity;BME280_pressure;Samples;Min_cycle;Max_cycle;Signal;HPM_P1;HPM_P2
2021/04/24 00:00:54;;;;;;;9.38;5.50;;;6.80;72.30;;;;;;5092883;28;20028;-64
2021/04/24 00:03:20;;;;;;;10.35;5.00;;;6.70;72.20;;;;;;5092768;28;20027;-65
2021/04/24 00:05:46;;;;;;;9.75;5.13;;;6.70;72.10;;;;;;5093106;28;20020;-65
2021/04/24 00:08:15;;;;;;;12.90;5.25;;;6.70;72.10;;;;;;5092645;28;20020;-67
2021/04/24 00:10:43;;;;;;;10.77;5.05;;;6.60;72.10;;;;;;5092642;28;20071;-65
2021/04/24 00:13:10;;;;;;;12.32;5.85;;;6.60;72.00;;;;;;5092154;28;20016;-65
2021/04/24 00:15:36;;;;;;;9.85;5.55;;;6.60;72.10;;;;;;5093723;28;20024;-65
2021/04/24 00:18:04;;;;;;;10.77;5.57;;;6.50;72.10;;;;;;5091754;28;20017;-65
2021/04/24 00:20:29;;;;;;;9.27;5.68;;;6.40;72.20;;;;;;5091860;28;20136;-64
2021/04/24 00:22:55;;;;;;;9.95;5.40;;;6.40;72.40;;;;;;5093506;28;20458;-65
2021/04/24 00:25:21;;;;;;;13.38;6.10;;;6.30;72.30;;;;;;5092809;28;20430;-67
2021/04/24 00:27:47;;;;;;;12.35;5.57;;;6.30;72.40;;;;;;5091308;28;20461;-65
2021/04/24 00:30:15;;;;;;;10.73;6.22;;;6.20;72.50;;;;;;5091709;28;20025;-65
2021/04/24 00:32:41;;;;;;;11.10;6.35;;;6.20;72.70;;;;;;5091187;28;20096;-65
2021/04/24 00:35:08;;;;;;;10.35;6.57;;;6.10;72.90;;;;;;5091837;28;20458;-65
2021/04/24 00:37:33;;;;;;;11.88;6.38;;;6.00;73.00;;;;;;5091630;28;20020;-65
2021/04/24 00:39:59;;;;;;;13.68;6.55;;;6.00;73.10;;;;;;5092346;28;20419;-65
2021/04/24 00:42:25;;;;;;;10.18;5.72;;;5.90;73.20;;;;;;5095740;28;20425;-68
2021/04/24 00:44:53;;;;;;;11.43;5.90;;;5.80;73.40;;;;;;5096522;28;20102;-65
2021/04/24 00:47:20;;;;;;;10.85;6.50;;;5.80;73.60;;;;;;5095366;28;20019;-65
2021/04/24 00:49:46;;;;;;;8.68;5.63;;;5.80;73.90;;;;;;5096159;28;20024;-65
2021/04/24 00:52:12;;;;;;;9.80;5.72;;;5.70;73.90;;;;;;5096475;28;20008;-65
2021/04/24 00:54:38;;;;;;;11.63;5.78;;;5.60;74.10;;;;;;5095587;28;20374;-66
2021/04/24 00:57:05;;;;;;;13.10;6.60;;;5.60;74.20;;;;;;5096345;28;20028;-65
2021/04/24 00:59:31;;;;;;;10.70;5.70;;;5.60;74.30;;;;;;5095356;28;20036;-65
2021/04/24 01:01:57;;;;;;;8.68;6.13;;;5.50;74.40;;;;;;5096043;28;20016;-65
2021/04/24 01:04:23;;;;;;;12.05;6.05;;;5.50;74.60;;;;;;5096285;28;20023;-65
2021/04/24 01:06:49;;;;;;;10.23;5.55;;;5.40;74.70;;;;;;5095419;28;20050;-65
2021/04/24 01:09:15;;;;;;;14.48;6.10;;;5.40;74.80;;;;;;5094431;28;20043;-67
2021/04/24 01:11:41;;;;;;;9.93;5.97;;;5.40;75.00;;;;;;5094771;28;20020;-65
2021/04/24 01:14:07;;;;;;;8.60;5.53;;;5.30;75.10;;;;;;5095030;28;20020;-65
2021/04/24 01:16:32;;;;;;;12.73;5.93;;;5.30;75.10;;;;;;5095747;28;20385;-65
2021/04/24 01:18:58;;;;;;;12.35;6.00;;;5.20;75.20;;;;;;5094326;28;20044;-65
2021/04/24 01:21:27;;;;;;;10.15;6.18;;;5.20;75.40;;;;;;5095564;28;20158;-65
2021/04/24 01:23:53;;;;;;;13.90;6.57;;;5.20;75.50;;;;;;5095862;28;20020;-65
2021/04/24 01:26:18;;;;;;;10.93;6.18;;;5.10;75.60;;;;;;5094327;28;20048;-64
2021/04/24 01:28:45;;;;;;;13.80;6.13;;;5.10;75.70;;;;;;5095494;28;20039;-64
2021/04/24 01:31:11;;;;;;;10.98;5.70;;;5.00;75.70;;;;;;5094230;28;20020;-65
2021/04/24 01:33:37;;;;;;;13.95;6.07;;;5.00;75.90;;;;;;5094426;28;20526;-64
2021/04/24 01:36:03;;;;;;;9.70;5.53;;;5.00;76.00;;;;;;5095422;28;20016;-65
2021/04/24 01:38:28;;;;;;;8.98;5.55;;;4.90;76.00;;;;;;5093759;28;20020;-65
2021/04/24 01:40:55;;;;;;;8.82;5.82;;;4.90;76.20;;;;;;5094483;28;20032;-64
2021/04/24 01:43:20;;;;;;;15.52;6.18;;;4.90;76.30;;;;;;5095175;28;20099;-65
2021/04/24 01:45:46;;;;;;;9.18;5.75;;;4.80;76.30;;;;;;5094980;28;20099;-65
2021/04/24 01:48:12;;;;;;;11.50;5.70;;;4.80;76.40;;;;;;5074971;28;20024;-65
2021/04/24 01:50:41;;;;;;;12.10;5.85;;;4.80;76.50;;;;;;5076943;28;20032;-64
2021/04/24 01:53:09;;;;;;;10.65;5.70;;;4.80;76.50;;;;;;5083903;28;20486;-65
2021/04/24 01:55:37;;;;;;;9.05;6.18;;;4.70;76.50;;;;;;5086748;28;20024;-64
2021/04/24 01:58:10;;;;;;;9.60;6.00;;;4.70;76.60;;;;;;5093082;28;20028;-65
2021/04/24 02:00:46;;;;;;;11.43;5.88;;;4.70;76.70;;;;;;5081352;28;20024;-65
2021/04/24 02:03:14;;;;;;;11.13;6.53;;;4.70;76.70;;;;;;5078271;28;20027;-67
2021/04/24 02:05:42;;;;;;;13.73;7.63;;;4.70;76.70;;;;;;5080893;28;20108;-65
2021/04/24 02:08:14;;;;;;;11.63;6.68;;;4.70;76.60;;;;;;5080335;28;20033;-65
2021/04/24 02:10:43;;;;;;;11.23;6.13;;;4.70;76.70;;;;;;5081091;28;20043;-65
2021/04/24 02:13:13;;;;;;;10.50;5.72;;;4.60;76.60;;;;;;5094871;28;20019;-65
2021/04/24 02:15:39;;;;;;;9.65;5.82;;;4.60;76.60;;;;;;5094440;28;20020;-64
2021/04/24 02:18:06;;;;;;;10.40;6.30;;;4.60;76.70;;;;;;5081782;28;20352;-65
2021/04/24 02:20:33;;;;;;;9.85;5.95;;;4.60;76.70;;;;;;5092481;28;20032;-65
2021/04/24 02:22:58;;;;;;;15.05;6.90;;;4.50;76.70;;;;;;5086469;28;20405;-65
2021/04/24 02:25:24;;;;;;;10.00;5.97;;;4.50;76.80;;;;;;5090359;28;20026;-65
2021/04/24 02:27:50;;;;;;;10.07;5.78;;;4.50;76.90;;;;;;5094861;28;20030;-65
2021/04/24 02:30:18;;;;;;;8.85;5.63;;;4.50;77.00;;;;;;5095262;28;20088;-65
2021/04/24 02:32:45;;;;;;;13.38;6.03;;;4.40;77.00;;;;;;5095473;28;20024;-65
2021/04/24 02:35:13;;;;;;;8.55;5.20;;;4.50;77.00;;;;;;5094954;28;20024;-65
2021/04/24 02:37:39;;;;;;;10.00;5.80;;;4.50;77.00;;;;;;5089010;28;20017;-64
2021/04/24 02:40:11;;;;;;;9.88;5.55;;;4.50;77.00;;;;;;5084643;28;20032;-65
2021/04/24 02:42:37;;;;;;;8.82;6.05;;;4.50;77.00;;;;;;5078155;28;20027;-65
2021/04/24 02:45:07;;;;;;;11.73;5.80;;;4.50;76.90;;;;;;5083881;28;20021;-65
2021/04/24 02:47:34;;;;;;;11.70;5.70;;;4.50;76.90;;;;;;5088363;28;20469;-64
2021/04/24 02:50:01;;;;;;;11.85;6.55;;;4.50;76.80;;;;;;5094220;28;20107;-64
2021/04/24 02:52:27;;;;;;;15.15;6.22;;;4.40;76.80;;;;;;5093774;28;20031;-65
2021/04/24 02:54:54;;;;;;;10.13;6.13;;;4.40;76.90;;;;;;5088945;28;20020;-64
2021/04/24 02:57:19;;;;;;;11.68;5.97;;;4.50;77.20;;;;;;5085052;28;20026;-64
2021/04/24 02:59:45;;;;;;;12.50;5.82;;;4.60;77.70;;;;;;5093701;28;20023;-64
2021/04/24 03:02:11;;;;;;;9.30;5.47;;;4.80;78.00;;;;;;5083369;28;20016;-64
2021/04/24 03:04:36;;;;;;;13.60;6.05;;;5.00;78.30;;;;;;5086310;28;20027;-65
2021/04/24 03:07:02;;;;;;;10.52;6.03;;;5.20;78.10;;;;;;5092578;28;20028;-64
2021/04/24 03:09:28;;;;;;;16.13;6.07;;;5.40;78.00;;;;;;5093506;28;20021;-65
2021/04/24 03:11:54;;;;;;;9.88;5.38;;;5.60;77.80;;;;;;5087070;28;20095;-65
2021/04/24 03:14:19;;;;;;;10.88;5.93;;;5.90;77.60;;;;;;5084486;28;20020;-65
2021/04/24 03:16:45;;;;;;;13.25;6.65;;;6.10;77.30;;;;;;5092951;28;20115;-65
2021/04/24 03:19:11;;;;;;;14.70;7.22;;;6.40;76.90;;;;;;5083689;28;20017;-65
2021/04/24 03:21:37;;;;;;;11.35;6.50;;;6.70;76.20;;;;;;5088140;28;20416;-65
2021/04/24 03:24:04;;;;;;;12.80;6.35;;;7.00;75.90;;;;;;5093644;28;20012;-65
2021/04/24 03:26:30;;;;;;;12.82;5.90;;;7.10;75.10;;;;;;5078382;28;20112;-63
2021/04/24 03:28:56;;;;;;;11.98;6.28;;;7.40;74.60;;;;;;5085821;28;20051;-65
2021/04/24 03:31:21;;;;;;;13.18;6.88;;;7.70;74.30;;;;;;5083761;28;20055;-66
2021/04/24 03:33:47;;;;;;;12.45;6.60;;;7.90;73.60;;;;;;5092584;28;20490;-65
2021/04/24 03:36:13;;;;;;;12.55;6.45;;;8.20;73.20;;;;;;5090464;28;20024;-65
2021/04/24 03:38:39;;;;;;;11.02;6.57;;;8.60;72.30;;;;;;5092093;28;20020;-65
2021/04/24 03:41:07;;;;;;;14.43;7.20;;;8.90;71.70;;;;;;5091355;28;20031;-64
2021/04/24 03:43:33;;;;;;;14.65;8.00;;;9.20;71.00;;;;;;5091672;28;20052;-64
2021/04/24 03:45:59;;;;;;;14.90;7.55;;;9.40;69.70;;;;;;5085966;28;20024;-64
2021/04/24 03:48:25;;;;;;;11.50;6.40;;;9.60;69.20;;;;;;5091983;28;20027;-68
2021/04/24 03:50:51;;;;;;;10.15;5.50;;;9.70;68.50;;;;;;5089926;28;20046;-66
2021/04/24 03:53:18;;;;;;;8.45;5.45;;;10.00;67.90;;;;;;5087000;28;20442;-68
2021/04/24 03:55:44;;;;;;;9.10;5.53;;;10.20;67.00;;;;;;5081712;28;20374;-65
2021/04/24 03:58:10;;;;;;;9.77;5.28;;;10.40;66.30;;;;;;5087909;28;20020;-64
2021/04/24 04:00:36;;;;;;;14.25;7.03;;;10.70;65.90;;;;;;5084946;28;20031;-65
2021/04/24 04:03:06;;;;;;;8.73;5.40;;;10.90;65.20;;;;;;5080615;28;20140;-68
2021/04/24 04:05:40;;;;;;;9.93;6.20;;;11.20;64.40;;;;;;5072277;28;20063;-67
2021/04/24 04:08:08;;;;;;;8.10;5.25;;;11.50;63.50;;;;;;5081726;28;20048;-65
2021/04/24 04:10:36;;;;;;;8.95;5.55;;;11.70;63.20;;;;;;5080585;28;20067;-66
2021/04/24 04:13:03;;;;;;;10.80;5.30;;;11.90;61.90;;;;;;5091433;28;20517;-68
2021/04/24 04:15:29;;;;;;;9.20;5.45;;;12.20;61.50;;;;;;5095457;28;20361;-67
2021/04/24 04:17:58;;;;;;;9.07;5.20;;;12.50;60.10;;;;;;5093359;28;20028;-64
2021/04/24 04:20:23;;;;;;;11.18;5.53;;;12.60;59.80;;;;;;5096938;28;20036;-66
2021/04/24 04:22:49;;;;;;;8.65;5.13;;;12.80;59.10;;;;;;5085046;28;20025;-70
2021/04/24 04:25:15;;;;;;;11.27;5.20;;;12.90;58.30;;;;;;5091611;28;20024;-66
2021/04/24 04:27:41;;;;;;;10.05;4.75;;;13.00;57.90;;;;;;5086530;28;20041;-65
2021/04/24 04:30:10;;;;;;;7.40;4.50;;;13.10;57.70;;;;;;5092132;28;20032;-65
2021/04/24 04:32:36;;;;;;;7.15;4.18;;;13.20;57.30;;;;;;5089796;28;20020;-65
2021/04/24 04:35:05;;;;;;;8.48;4.70;;;13.50;57.20;;;;;;5090745;28;20042;-64
2021/04/24 04:37:31;;;;;;;9.20;4.47;;;13.70;56.00;;;;;;5097167;28;20466;-65
2021/04/24 04:39:56;;;;;;;6.82;4.07;;;13.70;55.40;;;;;;5085216;28;20036;-65
2021/04/24 04:42:22;;;;;;;6.32;3.90;;;13.90;55.10;;;;;;5093036;28;20035;-65
2021/04/24 04:44:48;;;;;;;6.50;3.53;;;14.10;54.50;;;;;;5087257;28;20086;-65
2021/04/24 04:47:14;;;;;;;9.00;3.90;;;14.30;54.20;;;;;;5097805;28;20020;-66
2021/04/24 04:49:39;;;;;;;6.20;3.67;;;14.40;52.60;;;;;;5096549;28;20028;-66
2021/04/24 04:52:05;;;;;;;6.38;3.42;;;14.30;52.30;;;;;;5095024;28;20028;-66
2021/04/24 04:54:30;;;;;;;7.35;3.42;;;14.50;52.30;;;;;;5079285;28;20096;-66
2021/04/24 04:56:56;;;;;;;6.43;3.55;;;14.70;52.20;;;;;;5084738;28;20103;-66
2021/04/24 04:59:22;;;;;;;6.10;3.67;;;14.60;51.20;;;;;;5096243;28;20039;-66
2021/04/24 05:01:48;;;;;;;8.02;3.95;;;14.10;50.60;;;;;;5096603;28;20418;-66
2021/04/24 05:04:13;;;;;;;8.73;3.58;;;13.60;50.90;;;;;;5096287;28;20343;-66
2021/04/24 05:06:39;;;;;;;7.50;3.83;;;13.10;51.40;;;;;;5095286;28;20073;-67
2021/04/24 05:09:05;;;;;;;7.70;4.15;;;12.70;51.90;;;;;;5096173;28;20097;-66
2021/04/24 05:11:30;;;;;;;5.85;3.78;;;12.40;52.60;;;;;;5095956;28;20441;-66
2021/04/24 05:13:56;;;;;;;6.90;3.90;;;12.10;53.00;;;;;;5095052;28;20027;-66
2021/04/24 05:16:22;;;;;;;7.72;4.20;;;11.90;53.60;;;;;;5094723;28;20016;-66
2021/04/24 05:18:47;;;;;;;5.10;3.08;;;11.60;54.00;;;;;;5088114;28;20020;-66
2021/04/24 05:21:13;;;;;;;6.40;3.03;;;11.40;54.10;;;;;;5087388;28;20060;-66
2021/04/24 05:23:39;;;;;;;5.80;3.20;;;11.20;54.30;;;;;;5095538;28;20019;-66
2021/04/24 05:26:04;;;;;;;8.40;6.03;;;11.10;54.60;;;;;;5094582;28;20021;-66
2021/04/24 05:28:30;;;;;;;5.85;2.90;;;10.90;54.80;;;;;;5094838;28;20063;-65
2021/04/24 05:30:56;;;;;;;7.53;3.05;;;10.70;55.00;;;;;;5095434;28;20024;-65
2021/04/24 05:33:21;;;;;;;6.05;3.30;;;10.60;55.40;;;;;;5080493;28;20073;-66
2021/04/24 05:35:47;;;;;;;8.65;3.53;;;10.60;56.10;;;;;;5088026;28;20520;-67
2021/04/24 05:38:13;;;;;;;7.15;3.03;;;10.60;56.40;;;;;;5086080;28;20020;-66
2021/04/24 05:40:38;;;;;;;5.68;3.40;;;10.70;56.40;;;;;;5079411;28;20024;-66
2021/04/24 05:43:04;;;;;;;5.93;2.95;;;10.80;56.50;;;;;;5095656;28;20444;-66
2021/04/24 05:45:30;;;;;;;6.07;3.05;;;10.80;56.70;;;;;;5095012;28;20024;-67
2021/04/24 05:47:56;;;;;;;7.70;2.90;;;11.10;57.10;;;;;;5095412;28;20016;-68
2021/04/24 05:50:24;;;;;;;7.28;3.05;;;11.60;57.40;;;;;;5095298;28;20047;-68
2021/04/24 05:52:49;;;;;;;6.03;2.47;;;12.10;56.30;;;;;;5087616;28;20056;-68
2021/04/24 05:55:16;;;;;;;4.05;2.58;;;12.40;56.00;;;;;;5078977;28;20078;-68
2021/04/24 05:57:43;;;;;;;6.97;3.53;;;12.60;54.90;;;;;;5089635;28;20450;-72
2021/04/24 06:00:17;;;;;;;6.07;3.05;;;12.60;54.30;;;;;;5094219;28;20370;-68
2021/04/24 06:02:43;;;;;;;7.47;3.53;;;12.60;54.10;;;;;;5094973;28;20027;-68
2021/04/24 06:05:10;;;;;;;6.70;3.50;;;12.50;54.20;;;;;;5094509;28;20008;-68
2021/04/24 06:07:37;;;;;;;6.53;3.40;;;12.40;54.50;;;;;;5094134;28;20094;-69
2021/04/24 06:10:05;;;;;;;7.82;3.50;;;12.60;55.50;;;;;;5079303;28;20048;-69
2021/04/24 06:12:30;;;;;;;6.03;2.95;;;13.20;55.90;;;;;;5093510;28;20027;-69
2021/04/24 06:14:56;;;;;;;4.90;3.05;;;13.90;55.00;;;;;;5091463;28;20016;-68
2021/04/24 06:17:22;;;;;;;5.97;3.42;;;14.80;55.10;;;;;;5082783;28;20045;-69
2021/04/24 06:19:47;;;;;;;4.82;2.75;;;15.80;53.20;;;;;;5079095;28;20036;-72
2021/04/24 06:22:13;;;;;;;6.05;2.85;;;16.70;52.20;;;;;;5073906;28;20016;-69
2021/04/24 06:24:39;;;;;;;7.57;3.13;;;17.20;50.20;;;;;;5086165;28;20115;-69
2021/04/24 06:27:05;;;;;;;4.65;2.90;;;17.40;48.60;;;;;;5076878;28;20048;-69
2021/04/24 06:29:31;;;;;;;6.88;3.55;;;17.30;47.90;;;;;;5085336;28;20028;-68
2021/04/24 06:31:56;;;;;;;5.35;2.67;;;17.40;48.40;;;;;;5096208;28;20073;-67
2021/04/24 06:34:22;;;;;;;6.43;3.00;;;17.70;47.10;;;;;;5097747;28;20028;-68
2021/04/24 06:36:49;;;;;;;8.05;3.40;;;17.80;46.00;;;;;;5093757;28;20020;-69
2021/04/24 06:39:15;;;;;;;5.80;3.03;;;18.00;46.20;;;;;;5094624;28;20051;-69
2021/04/24 06:41:40;;;;;;;6.18;2.83;;;18.30;45.70;;;;;;5097118;28;20469;-68
2021/04/24 06:44:06;;;;;;;4.88;3.10;;;18.60;44.70;;;;;;5081403;28;20342;-67
2021/04/24 06:46:32;;;;;;;5.45;3.10;;;18.60;42.80;;;;;;5096586;28;20454;-68
2021/04/24 06:48:57;;;;;;;6.35;3.03;;;18.00;42.50;;;;;;5097286;28;20086;-68
2021/04/24 06:51:23;;;;;;;8.57;3.05;;;17.90;43.40;;;;;;5096392;28;20141;-68
2021/04/24 06:53:54;;;;;;;6.50;3.20;;;17.90;43.80;;;;;;5093367;28;20072;-72
2021/04/24 06:56:20;;;;;;;5.82;2.92;;;18.00;43.80;;;;;;5079853;28;20571;-68
2021/04/24 06:58:46;;;;;;;5.82;3.17;;;18.50;43.30;;;;;;5083523;28;20028;-68
2021/04/24 07:01:12;;;;;;;6.75;2.78;;;18.10;42.20;;;;;;5087178;28;20059;-68
2021/04/24 07:03:38;;;;;;;7.40;3.20;;;17.30;41.70;;;;;;5093903;28;20446;-68
2021/04/24 07:06:06;;;;;;;10.30;3.25;;;16.40;42.10;;;;;;5094097;28;20091;-68
2021/04/24 07:08:32;;;;;;;7.28;3.20;;;15.50;43.20;;;;;;5092953;28;20156;-68
2021/04/24 07:10:58;;;;;;;8.68;3.25;;;14.70;44.30;;;;;;5093524;28;20127;-67
2021/04/24 07:13:24;;;;;;;6.47;3.50;;;13.70;46.10;;;;;;5093427;28;20512;-67
2021/04/24 07:15:49;;;;;;;6.70;3.00;;;13.00;48.10;;;;;;5092313;28;20101;-68
2021/04/24 07:18:15;;;;;;;5.43;2.63;;;13.00;50.60;;;;;;5093191;28;20023;-69
2021/04/24 07:20:41;;;;;;;5.63;2.90;;;13.40;52.00;;;;;;5091996;28;20078;-68
2021/04/24 07:23:07;;;;;;;5.93;3.13;;;13.70;50.90;;;;;;5093668;28;20532;-68
2021/04/24 07:25:33;;;;;;;6.30;3.63;;;13.50;50.40;;;;;;5093425;28;20367;-68
2021/04/24 07:27:59;;;;;;;6.22;3.58;;;13.30;50.90;;;;;;5092055;28;20024;-68
2021/04/24 07:30:25;;;;;;;5.55;3.38;;;13.40;51.80;;;;;;5092685;28;20028;-69
2021/04/24 07:32:51;;;;;;;4.93;3.00;;;13.70;52.30;;;;;;5082376;28;20029;-68
2021/04/24 07:35:16;;;;;;;7.75;3.20;;;14.50;52.50;;;;;;5088725;28;20473;-68
2021/04/24 07:37:43;;;;;;;5.18;2.63;;;15.50;51.80;;;;;;5086117;28;20024;-68
2021/04/24 07:40:10;;;;;;;6.90;2.95;;;16.50;50.00;;;;;;5087104;28;20354;-68
2021/04/24 07:42:35;;;;;;;5.03;2.10;;;17.40;47.70;;;;;;5092317;28;20012;-68
2021/04/24 07:45:03;;;;;;;5.18;2.45;;;17.90;45.90;;;;;;5093126;28;20023;-69
2021/04/24 07:47:29;;;;;;;6.63;2.33;;;18.20;45.10;;;;;;5077547;28;20039;-68
2021/04/24 07:49:54;;;;;;;4.28;2.38;;;18.70;44.30;;;;;;5081878;28;20024;-69
2021/04/24 07:52:21;;;;;;;5.90;2.05;;;19.20;43.50;;;;;;5088655;28;20034;-68
2021/04/24 07:54:46;;;;;;;5.35;2.40;;;19.40;41.60;;;;;;5091485;28;20020;-68
2021/04/24 07:57:14;;;;;;;4.55;2.30;;;18.80;40.90;;;;;;5093160;28;20031;-69
2021/04/24 07:59:40;;;;;;;5.60;2.88;;;18.50;41.40;;;;;;5077027;28;20052;-69
2021/04/24 08:02:06;;;;;;;5.53;2.50;;;18.00;40.70;;;;;;5084954;28;20351;-69
2021/04/24 08:04:32;;;;;;;4.15;2.60;;;17.10;41.10;;;;;;5086421;28;20030;-69
2021/04/24 08:06:58;;;;;;;5.65;2.65;;;16.50;42.10;;;;;;5085589;28;20024;-69
2021/04/24 08:09:25;;;;;;;5.68;2.80;;;15.90;43.20;;;;;;5072964;28;20033;-68
2021/04/24 08:11:51;;;;;;;6.03;2.58;;;15.70;45.10;;;;;;5085729;28;20024;-68
2021/04/24 08:14:17;;;;;;;6.90;3.35;;;15.80;46.50;;;;;;5083841;28;20024;-69
2021/04/24 08:16:43;;;;;;;5.47;2.92;;;16.40;46.70;;;;;;5090634;28;20016;-69
2021/04/24 08:19:08;;;;;;;4.20;2.40;;;17.20;46.10;;;;;;5080726;28;20016;-69
2021/04/24 08:21:34;;;;;;;4.97;2.50;;;17.60;44.30;;;;;;5092574;28;20129;-69
2021/04/24 08:24:01;;;;;;;4.38;2.60;;;17.20;42.70;;;;;;5093542;28;20012;-69
2021/04/24 08:26:28;;;;;;;5.10;2.55;;;16.60;42.90;;;;;;5092063;28;20410;-68
2021/04/24 08:28:54;;;;;;;4.25;2.35;;;16.30;42.60;;;;;;5088116;28;20043;-68
2021/04/24 08:31:20;;;;;;;5.25;2.60;;;16.00;42.80;;;;;;5084265;28;20024;-68
2021/04/24 08:33:46;;;;;;;3.72;2.53;;;15.80;43.10;;;;;;5077867;28;20013;-69
2021/04/24 08:36:12;;;;;;;4.15;2.65;;;15.80;43.70;;;;;;5093364;28;20016;-70
2021/04/24 08:38:38;;;;;;;6.63;2.88;;;16.10;44.40;;;;;;5093431;28;20047;-68
2021/04/24 08:41:04;;;;;;;5.32;2.33;;;16.40;44.10;;;;;;5099702;28;20109;-69
2021/04/24 08:43:31;;;;;;;4.00;2.22;;;16.90;43.60;;;;;;5094297;28;20496;-69
2021/04/24 08:46:01;;;;;;;6.32;2.63;;;17.20;43.00;;;;;;5088249;28;20016;-69
2021/04/24 08:48:27;;;;;;;5.10;2.30;;;17.70;43.00;;;;;;5086186;28;20051;-71
2021/04/24 08:50:54;;;;;;;3.83;1.98;;;18.40;41.90;;;;;;5079484;28;20020;-70
2021/04/24 08:53:20;;;;;;;4.80;2.20;;;19.20;40.60;;;;;;5092635;28;20039;-69
2021/04/24 08:55:47;;;;;;;3.90;2.25;;;19.70;39.80;;;;;;5079838;28;20106;-70
2021/04/24 08:58:13;;;;;;;3.95;2.00;;;19.80;39.00;;;;;;5076574;28;20016;-68
2021/04/24 09:00:41;;;;;;;4.00;2.00;;;19.60;38.30;;;;;;5091178;28;20425;-68
2021/04/24 09:03:13;;;;;;;3.40;2.03;;;19.00;37.90;;;;;;5080120;28;20465;-68
2021/04/24 09:05:39;;;;;;;5.82;2.22;;;18.00;37.60;;;;;;5085408;28;20043;-68
2021/04/24 09:08:07;;;;;;;4.30;2.10;;;16.90;38.90;;;;;;5090234;28;20016;-68
2021/04/24 09:10:44;;;;;;;3.60;1.98;;;16.00;40.30;;;;;;5095674;28;20097;-68
2021/04/24 09:13:15;;;;;;;4.72;2.20;;;15.30;41.70;;;;;;5095566;28;20517;-68
2021/04/24 09:15:42;;;;;;;5.18;2.42;;;14.80;42.70;;;;;;5086542;28;20020;-68
2021/04/24 09:18:09;;;;;;;3.72;2.17;;;15.20;44.40;;;;;;5089968;28;20090;-69
2021/04/24 09:20:44;;;;;;;6.13;2.17;;;16.00;44.30;;;;;;5094307;28;20074;-69
2021/04/24 09:23:10;;;;;;;4.80;1.80;;;16.90;43.90;;;;;;5095900;28;20059;-69
2021/04/24 09:25:36;;;;;;;4.78;2.00;;;17.80;43.10;;;;;;5088472;28;20032;-69
2021/04/24 09:28:03;;;;;;;4.38;1.70;;;18.00;41.20;;;;;;5087772;28;20028;-68
2021/04/24 09:30:31;;;;;;;4.50;1.98;;;18.00;40.20;;;;;;5094321;28;20031;-69
2021/04/24 09:33:24;;;;;;;5.32;2.15;;;17.90;39.80;;;;;;5096010;28;20032;-69
2021/04/24 09:35:53;;;;;;;19.08;2.17;;;17.20;38.70;;;;;;5078847;28;20024;-68
2021/04/24 09:38:34;;;;;;;6.70;2.00;;;15.80;40.40;;;;;;5094264;28;20020;-68
2021/04/24 09:41:06;;;;;;;5.72;2.50;;;14.10;43.80;;;;;;5082133;28;20028;-68
2021/04/24 09:44:03;;;;;;;4.47;2.25;;;12.40;46.80;;;;;;5095439;28;20059;-68
2021/04/24 09:46:35;;;;;;;5.57;2.80;;;11.00;49.80;;;;;;5084982;28;20466;-68
2021/04/24 09:49:10;;;;;;;4.40;2.35;;;10.10;52.30;;;;;;5095279;28;20095;-68
2021/04/24 09:51:51;;;;;;;5.32;2.35;;;9.60;53.90;;;;;;5095413;28;20027;-68
2021/04/24 09:54:18;;;;;;;6.72;2.67;;;9.20;55.30;;;;;;5079218;28;20046;-72
2021/04/24 09:56:58;;;;;;;4.40;2.60;;;8.80;56.10;;;;;;5095192;28;20024;-69
2021/04/24 09:59:24;;;;;;;5.03;2.42;;;8.50;57.50;;;;;;5079418;28;20103;-70
2021/04/24 10:02:00;;;;;;;4.18;2.30;;;8.30;57.80;;;;;;5081127;28;20111;-68
2021/04/24 10:04:26;;;;;;;4.28;2.55;;;8.20;58.70;;;;;;5095204;28;20150;-69
2021/04/24 10:06:54;;;;;;;4.07;2.90;;;8.30;59.10;;;;;;5094663;28;20102;-68
2021/04/24 10:09:25;;;;;;;6.68;2.95;;;8.40;59.90;;;;;;5082363;28;20020;-69
2021/04/24 10:11:51;;;;;;;4.45;2.35;;;8.70;60.90;;;;;;5092414;28;20078;-67
2021/04/24 10:14:33;;;;;;;5.28;2.70;;;9.50;61.60;;;;;;5084528;28;20029;-68
2021/04/24 10:17:00;;;;;;;3.28;2.08;;;11.00;61.10;;;;;;5088948;28;20024;-69
2021/04/24 10:19:28;;;;;;;3.28;2.08;;;12.50;59.30;;;;;;5084976;28;20407;-68
2021/04/24 10:21:53;;;;;;;4.47;2.40;;;13.80;57.40;;;;;;5094101;28;20499;-68
2021/04/24 10:24:23;;;;;;;3.90;2.20;;;15.00;54.90;;;;;;5086006;28;20020;-68
2021/04/24 10:26:49;;;;;;;5.32;3.00;;;16.00;51.50;;;;;;5075479;28;20016;-69
2021/04/24 10:29:16;;;;;;;4.30;2.65;;;17.00;49.80;;;;;;5086353;28;20477;-68
2021/04/24 10:31:42;;;;;;;4.00;2.40;;;17.70;46.40;;;;;;5089345;28;20107;-72
2021/04/24 10:34:08;;;;;;;4.40;2.40;;;18.10;46.30;;;;;;5095251;28;20103;-68
2021/04/24 10:36:35;;;;;;;2.75;1.70;;;18.60;44.80;;;;;;5084085;28;20104;-69
2021/04/24 10:39:03;;;;;;;3.28;1.80;;;19.10;43.20;;;;;;5098671;28;20019;-68
2021/04/24 10:41:41;;;;;;;5.00;2.00;;;19.50;41.80;;;;;;5097754;28;20390;-68
2021/04/24 10:44:19;;;;;;;4.38;1.90;;;19.60;41.00;;;;;;5080422;28;20098;-69
2021/04/24 10:46:48;;;;;;;5.18;2.85;;;19.40;40.20;;;;;;5075533;28;20024;-68
2021/04/24 10:49:21;;;;;;;3.47;1.92;;;19.00;39.90;;;;;;5090749;28;20027;-68
2021/04/24 10:52:20;;;;;;;4.65;1.70;;;18.40;39.80;;;;;;5086844;28;20093;-68
2021/04/24 10:55:30;;;;;;;3.25;1.90;;;17.40;40.50;;;;;;5078208;28;20024;-68
2021/04/24 10:57:57;;;;;;;3.05;1.70;;;16.40;41.50;;;;;;5007839;28;20124;-68
2021/04/24 11:00:30;;;;;;;2.42;1.33;;;16.80;41.90;;;;;;5079540;28;20145;-68
2021/04/24 11:03:01;;;;;;;2.15;1.40;;;17.40;39.80;;;;;;5078315;28;20348;-68
2021/04/24 11:05:27;;;;;;;2.63;1.60;;;17.80;38.50;;;;;;5094667;28;20020;-69
2021/04/24 11:08:08;;;;;;;2.92;1.30;;;18.20;38.10;;;;;;5079060;28;20089;-68
2021/04/24 11:10:47;;;;;;;2.80;1.70;;;18.80;37.10;;;;;;5080247;28;20062;-69
2021/04/24 11:13:14;;;;;;;2.97;1.70;;;19.10;36.60;;;;;;5093478;28;20074;-69
2021/04/24 11:15:41;;;;;;;3.45;1.45;;;19.30;36.10;;;;;;5093944;28;20020;-69
2021/04/24 11:18:10;;;;;;;2.90;1.40;;;19.30;34.70;;;;;;5093261;28;20562;-69
2021/04/24 11:20:55;;;;;;;3.20;1.65;;;19.20;34.80;;;;;;5091909;28;20024;-69
2021/04/24 11:23:33;;;;;;;4.00;1.80;;;19.20;34.90;;;;;;5092828;28;20024;-68
2021/04/24 11:26:01;;;;;;;3.30;1.40;;;19.60;34.70;;;;;;5082645;28;20020;-69
2021/04/24 11:28:27;;;;;;;2.75;1.40;;;19.50;33.00;;;;;;5088325;28;20039;-72
2021/04/24 11:30:54;;;;;;;2.40;1.13;;;18.30;32.50;;;;;;5092558;28;20466;-68
2021/04/24 11:33:29;;;;;;;2.92;1.38;;;17.10;32.60;;;;;;5093435;28;20061;-68
2021/04/24 11:36:17;;;;;;;4.10;1.70;;;16.10;33.30;;;;;;5091892;28;20016;-68
2021/04/24 11:39:06;;;;;;;2.50;1.27;;;15.40;33.30;;;;;;5085552;28;20027;-68
2021/04/24 11:41:44;;;;;;;2.42;1.35;;;14.90;33.50;;;;;;5070819;28;20051;-68
2021/04/24 11:44:18;;;;;;;2.03;1.20;;;14.70;33.50;;;;;;5077519;28;20012;-68
2021/04/24 11:46:51;;;;;;;5.22;1.38;;;14.40;32.90;;;;;;5092656;28;20034;-69
2021/04/24 11:49:19;;;;;;;1.58;1.05;;;14.20;33.60;;;;;;5093019;28;20623;-68
2021/04/24 11:51:59;;;;;;;6.38;1.60;;;14.10;33.80;;;;;;5093331;28;20106;-69
2021/04/24 11:54:38;;;;;;;4.05;2.30;;;13.90;34.40;;;;;;5091587;28;20046;-73
2021/04/24 11:57:10;;;;;;;1.83;1.13;;;13.70;34.60;;;;;;5080597;28;20366;-69
2021/04/24 11:59:37;;;;;;;2.65;1.40;;;13.50;35.00;;;;;;5093059;28;20028;-69
2021/04/24 12:02:20;;;;;;;3.78;1.38;;;13.30;35.10;;;;;;5093349;28;20107;-69
2021/04/24 12:05:09;;;;;;;2.95;1.30;;;13.10;35.80;;;;;;5092844;28;20411;-69
2021/04/24 12:07:47;;;;;;;2.47;1.23;;;12.90;35.70;;;;;;5091493;28;20020;-69
2021/04/24 12:10:15;;;;;;;4.47;1.50;;;12.70;35.40;;;;;;5072026;28;20044;-69
2021/04/24 12:12:46;;;;;;;2.67;1.10;;;12.60;35.50;;;;;;5072899;28;20025;-69
2021/04/24 12:15:24;;;;;;;4.00;1.38;;;12.60;35.00;;;;;;5090184;28;20465;-69
2021/04/24 12:17:58;;;;;;;4.40;1.33;;;12.60;35.30;;;;;;5079631;28;20021;-69
2021/04/24 12:20:28;;;;;;;2.50;1.20;;;12.50;35.50;;;;;;5085573;28;20032;-71
2021/04/24 12:22:56;;;;;;;2.25;1.20;;;12.50;35.90;;;;;;5073158;28;20118;-69
2021/04/24 12:25:24;;;;;;;5.40;2.20;;;12.30;36.00;;;;;;5087097;28;20028;-69
2021/04/24 12:27:52;;;;;;;2.38;1.20;;;12.20;36.30;;;;;;5083122;28;20462;-69
2021/04/24 12:30:24;;;;;;;1.83;1.30;;;12.20;36.50;;;;;;5092948;28;20034;-70
2021/04/24 12:33:05;;;;;;;2.63;1.48;;;12.20;36.30;;;;;;5091739;28;20366;-69
2021/04/24 12:35:36;;;;;;;1.98;1.17;;;12.30;36.20;;;;;;5076015;28;20036;-69
2021/04/24 12:38:01;;;;;;;1.75;1.13;;;12.50;36.10;;;;;;5087319;28;20024;-69
2021/04/24 12:40:29;;;;;;;1.92;1.20;;;12.50;35.70;;;;;;5098611;28;20035;-69
2021/04/24 12:43:08;;;;;;;3.30;1.10;;;12.60;35.50;;;;;;5088113;28;20024;-68
2021/04/24 12:45:37;;;;;;;7.05;1.30;;;12.70;35.20;;;;;;5093296;28;20070;-68
2021/04/24 12:48:04;;;;;;;3.30;1.30;;;12.60;35.00;;;;;;5097702;28;20046;-67
2021/04/24 12:50:39;;;;;;;3.75;1.30;;;12.40;35.20;;;;;;5082648;28;20032;-68
2021/04/24 12:53:06;;;;;;;4.72;1.20;;;12.20;35.30;;;;;;5097733;28;20065;-68